GMMN

Mohammed V International Airport

Casablanca, Morocco
METAR GMMN 170530Z 06003KT 9999 SCT016 07/07 Q1022 NOSIG
Observed Flight Rules
Dec-17 @ 05:30 UTC (37 minutes ago) Visual Flight Rules
Wind Visibility Clouds
60° at 3 knots 10,000+ meters
  • Scattered at 1,600' AGL
Temperatures Readings
Current 7°C / 45°F
Dewpoint 7°C / 45°F
Humidity 100%
Altimeter 30.18" Hg
Pressure 1022 hPa
Elevation 206
METAR GMMN 170530Z 06003KT 9999 SCT016 07/07 Q1022 NOSIG
Observed Flight Rules
Dec-17 @ 05:30 UTC
(37 minutes ago)
VFR
Wind Visibility
60° at 3 knots 10,000+ meters
Clouds
  • Scattered at 1,600' AGL
Temperature Dewpoint
7°C / 45°F 7°C / 45°F
Humidity Altimeter Pressure
100% 30.18" Hg 1022 hPa